Date,TemperatureHighF,TemperatureAvgF,TemperatureLowF,DewpointHighF,DewpointAvgF,DewpointLowF,HumidityHigh,HumidityAvg,HumidityLow,PressureMaxIn,PressureMinIn,WindSpeedMaxMPH,WindSpeedAvgMPH,GustSpeedMaxMPH,PrecipitationSumIn
2013-9-1,30.9,23.7,14.2,11.8,7.2,1.3,62,49,38,29.81,29.64,12,4,12,0.00
2013-9-2,37.0,23.7,10.2,12.2,6.3,-4.4,64,48,27,29.83,29.68,8,3,8,0.00
2013-9-3,41.7,32.1,27.1,21.6,17.1,12.3,65,54,43,29.71,29.58,14,6,14,0.00
2013-9-4,47.7,34.1,25.9,21.6,18.3,14.0,72,53,33,29.92,29.66,14,4,14,0.00
2013-9-5,48.7,36.7,30.9,30.4,24.1,20.3,81,61,43,29.87,29.62,8,3,8,0.00
2013-9-6,75.6,58.7,31.3,45.9,40.3,20.6,87,55,29,29.98,29.72,12,1,12,0.00
2013-9-7,81.5,64.4,49.3,58.1,50.2,45.6,99,65,31,29.81,29.58,3,0,3,0.00
2013-9-8,82.2,68.7,56.3,65.4,55.5,44.1,87,64,35,29.77,29.50,11,2,11,0.00
2013-9-9,74.8,61.1,46.2,58.5,48.6,40.4,94,67,36,29.93,29.76,7,0,7,0.00
2013-9-10,84.9,71.5,62.4,73.2,67.3,58.5,99,87,67,29.85,29.74,11,2,11,0.13
2013-9-11,95.4,81.4,71.1,77.5,73.2,69.8,98,78,52,29.81,29.67,10,2,10,0.00
2013-9-12,88.3,74.6,66.6,75.2,70.2,65.2,99,87,62,29.69,29.39,21,2,21,2.03
2013-9-13,75.9,67.8,63.7,70.0,64.9,61.1,99,91,62,29.40,29.31,9,1,9,0.09
2013-9-16,36.5,34.1,25.9,24.1,18.1,5.9,63,52,41,30.08,29.96,12,6,12,0.00
2013-9-17,30.9,23.5,14.2,11.2,6.2,1.3,62,47,38,30.24,30.10,12,4,12,0.00
2013-9-18,37.0,23.2,10.2,12.1,6.3,-4.4,64,49,27,30.31,30.20,8,3,8,0.00
2013-9-19,41.7,31.6,26.6,21.6,16.4,10.0,65,53,43,30.20,30.06,14,6,14,0.00
2013-9-20,47.7,34.5,25.9,21.6,17.7,14.0,68,51,33,30.40,30.09,14,5,14,0.00
2013-9-21,48.7,35.8,25.9,30.4,23.5,17.1,81,62,43,30.36,30.10,8,3,8,0.00
2013-9-22,68.9,48.0,31.3,48.9,36.6,20.6,93,66,33,30.45,29.92,12,3,12,0.00
2013-9-23,68.2,53.7,43.0,46.3,43.4,39.4,98,72,41,30.19,30.06,8,1,8,0.00
2013-9-24,78.4,54.8,38.8,51.2,44.9,38.6,99,74,34,30.19,30.02,10,2,11,0.00
2013-9-25,76.3,58.5,43.9,52.0,47.6,42.4,97,71,37,30.10,30.03,7,0,7,0.00
2013-9-26,75.6,59.3,49.8,57.6,53.0,48.5,97,81,47,30.26,30.10,4,1,4,0.00
2013-9-27,68.5,56.3,47.3,57.0,51.5,47.0,99,85,60,30.42,30.26,3,0,3,0.00
2013-9-28,78.6,60.6,47.7,58.5,52.1,47.4,99,78,43,30.48,30.40,2,0,4,0.00
2013-9-29,75.4,60.1,48.2,64.0,53.2,46.7,99,80,52,30.40,30.25,2,0,4,0.00
2013-9-30,78.3,58.8,46.2,59.5,50.7,45.4,99,79,44,30.24,30.13,2,0,3,0.00